createdAt,value
2023-05-24T00:00:00.359Z,2.80
2023-05-24T00:02:27.159Z,3.40
2023-05-24T00:04:54.378Z,3.28
2023-05-24T00:07:21.011Z,3.42
2023-05-24T00:09:47.750Z,3.78
2023-05-24T00:12:14.233Z,2.55
2023-05-24T00:14:41.215Z,3.33
2023-05-24T00:17:07.770Z,2.92
2023-05-24T00:19:38.226Z,3.80
2023-05-24T00:22:04.937Z,3.00
2023-05-24T00:24:31.474Z,2.92
2023-05-24T00:26:58.255Z,2.67
2023-05-24T00:29:24.714Z,3.20
2023-05-24T00:31:51.636Z,2.80
2023-05-24T00:34:18.044Z,3.20
2023-05-24T00:36:44.946Z,2.65
2023-05-24T00:39:11.601Z,2.50
2023-05-24T00:41:38.561Z,2.70
2023-05-24T00:44:04.998Z,3.03
2023-05-24T00:46:34.383Z,2.30
2023-05-24T00:49:01.823Z,2.63
2023-05-24T00:51:28.632Z,2.60
2023-05-24T00:53:56.301Z,2.80
2023-05-24T00:56:23.289Z,3.00
2023-05-24T00:58:54.433Z,3.05
2023-05-24T01:01:20.917Z,2.50
2023-05-24T01:03:48.405Z,2.72
2023-05-24T01:06:16.334Z,2.22
2023-05-24T01:08:54.300Z,3.05
2023-05-24T01:11:50.129Z,2.38
2023-05-24T01:14:21.486Z,2.17
2023-05-24T01:16:48.268Z,2.17
2023-05-24T01:19:43.694Z,2.75
2023-05-24T01:22:41.100Z,3.33
2023-05-24T01:25:19.500Z,2.80
2023-05-24T01:27:48.038Z,2.08
2023-05-24T01:30:15.523Z,2.33
2023-05-24T01:32:42.245Z,2.22
2023-05-24T01:35:09.286Z,2.42
2023-05-24T01:37:36.015Z,2.38
2023-05-24T01:40:04.342Z,2.53
2023-05-24T01:42:41.299Z,2.50
2023-05-24T01:45:27.744Z,2.35
2023-05-24T01:48:26.746Z,3.08
2023-05-24T01:50:57.759Z,2.45
2023-05-24T01:53:32.176Z,2.70
2023-05-24T01:56:01.681Z,2.47
2023-05-24T01:58:30.315Z,2.53
2023-05-24T02:00:58.106Z,2.58
2023-05-24T02:03:24.655Z,2.92
2023-05-24T02:05:51.286Z,2.75
2023-05-24T02:08:17.723Z,2.45
2023-05-24T02:10:44.427Z,2.70
2023-05-24T02:13:11.450Z,2.53
2023-05-24T02:15:37.898Z,2.10
2023-05-24T02:18:08.250Z,2.83
2023-05-24T02:20:38.003Z,2.72
2023-05-24T02:23:04.883Z,3.30
2023-05-24T02:25:32.728Z,2.70
2023-05-24T02:28:00.052Z,2.83
2023-05-24T02:30:26.888Z,2.78
2023-05-24T02:32:53.445Z,2.10
2023-05-24T02:35:20.957Z,2.72
2023-05-24T02:37:47.782Z,2.40
2023-05-24T02:40:14.314Z,2.42
2023-05-24T02:42:41.338Z,2.40
2023-05-24T02:45:08.219Z,2.10
2023-05-24T02:47:34.942Z,2.72
2023-05-24T02:50:01.397Z,2.60
2023-05-24T02:52:27.871Z,2.92
2023-05-24T02:54:54.301Z,2.50
2023-05-24T02:57:21.223Z,2.30
2023-05-24T02:59:47.665Z,2.47
2023-05-24T03:02:14.785Z,2.45
2023-05-24T03:04:41.208Z,2.53
2023-05-24T03:07:07.751Z,2.10
2023-05-24T03:09:34.551Z,3.03
2023-05-24T03:12:01.700Z,1.88
2023-05-24T03:14:28.195Z,2.28
2023-05-24T03:16:54.664Z,2.67
2023-05-24T03:19:21.216Z,2.03
2023-05-24T03:21:48.069Z,2.60
2023-05-24T03:24:14.760Z,2.45
2023-05-24T03:26:41.363Z,2.40
2023-05-24T03:29:07.900Z,2.85
2023-05-24T03:31:34.878Z,2.60
2023-05-24T03:34:01.342Z,2.15
2023-05-24T03:36:29.095Z,1.88
2023-05-24T03:38:58.083Z,2.03
2023-05-24T03:41:25.049Z,2.10
2023-05-24T03:43:52.536Z,3.28
2023-05-24T03:46:19.131Z,2.13
2023-05-24T03:48:45.781Z,2.35
2023-05-24T03:51:12.754Z,2.28
2023-05-24T03:53:39.350Z,1.98
2023-05-24T03:56:06.358Z,2.42
2023-05-24T03:58:33.283Z,2.33
2023-05-24T04:01:00.149Z,2.25
2023-05-24T04:03:27.416Z,2.55
2023-05-24T04:05:54.120Z,2.00
2023-05-24T04:08:20.696Z,1.98
2023-05-24T04:10:47.150Z,2.47
2023-05-24T04:13:14.150Z,2.13
2023-05-24T04:15:40.768Z,2.30
2023-05-24T04:18:07.956Z,2.60
2023-05-24T04:20:34.495Z,2.10
2023-05-24T04:23:01.091Z,2.35
2023-05-24T04:25:29.576Z,2.70
2023-05-24T04:27:57.412Z,2.58
2023-05-24T04:30:23.901Z,2.30
2023-05-24T04:32:51.237Z,2.72
2023-05-24T04:35:18.223Z,2.20
2023-05-24T04:37:48.260Z,2.55
2023-05-24T04:40:14.959Z,2.50
2023-05-24T04:42:41.423Z,2.60
2023-05-24T04:45:08.751Z,2.55
2023-05-24T04:47:35.822Z,2.88
2023-05-24T04:50:02.308Z,2.97
2023-05-24T04:52:30.441Z,2.45
2023-05-24T04:54:58.005Z,2.83
2023-05-24T04:57:24.443Z,3.40
2023-05-24T04:59:50.955Z,3.22
2023-05-24T05:02:17.468Z,2.00
2023-05-24T05:04:43.939Z,1.98
2023-05-24T05:07:10.386Z,2.03
2023-05-24T05:09:36.928Z,2.22
2023-05-24T05:12:03.454Z,1.83
2023-05-24T05:14:30.430Z,2.10
2023-05-24T05:16:57.921Z,1.60
2023-05-24T05:19:24.396Z,2.00
2023-05-24T05:21:52.054Z,1.50
2023-05-24T05:24:19.078Z,1.73
2023-05-24T05:26:45.652Z,1.90
2023-05-24T05:29:12.263Z,2.05
2023-05-24T05:31:39.628Z,2.80
2023-05-24T05:34:09.667Z,1.80
2023-05-24T05:36:41.071Z,2.55
2023-05-24T05:39:11.375Z,3.05
2023-05-24T05:41:45.974Z,2.75
2023-05-24T05:44:13.697Z,2.20
2023-05-24T05:46:41.481Z,2.40
2023-05-24T05:49:07.986Z,3.28
2023-05-24T05:51:34.426Z,3.13
2023-05-24T05:54:01.472Z,2.50
2023-05-24T05:56:28.611Z,3.22
2023-05-24T05:58:55.052Z,3.15
2023-05-24T06:01:21.563Z,2.75
2023-05-24T06:03:48.599Z,3.05
2023-05-24T06:06:15.724Z,2.90
2023-05-24T06:08:42.328Z,2.88
2023-05-24T06:11:08.820Z,3.08
2023-05-24T06:13:35.396Z,3.05
2023-05-24T06:16:01.881Z,3.03
2023-05-24T06:18:30.489Z,3.83
2023-05-24T06:20:57.161Z,5.05
2023-05-24T06:23:23.620Z,4.35
2023-05-24T06:25:50.677Z,4.00
2023-05-24T06:28:17.266Z,4.45
2023-05-24T06:30:44.085Z,4.10
2023-05-24T06:33:11.070Z,4.63
2023-05-24T06:35:37.623Z,5.13
2023-05-24T06:38:04.467Z,5.47
2023-05-24T06:40:30.941Z,5.90
2023-05-24T06:42:58.700Z,6.38
2023-05-24T06:45:25.216Z,6.18
2023-05-24T06:47:51.785Z,6.50
2023-05-24T06:50:18.951Z,6.53
2023-05-24T06:52:45.597Z,6.07
2023-05-24T06:55:12.044Z,5.50
2023-05-24T06:57:38.870Z,6.82
2023-05-24T07:00:12.540Z,6.15
2023-05-24T07:02:39.746Z,4.68
2023-05-24T07:05:11.983Z,7.03
2023-05-24T07:07:43.368Z,6.03
2023-05-24T07:10:12.084Z,5.32
2023-05-24T07:12:38.919Z,6.43
2023-05-24T07:15:07.100Z,5.90
2023-05-24T07:17:33.651Z,5.47
2023-05-24T07:20:01.757Z,5.30
2023-05-24T07:22:30.023Z,8.38
2023-05-24T07:24:56.594Z,5.30
2023-05-24T07:27:23.387Z,5.13
2023-05-24T07:29:50.334Z,5.63
2023-05-24T07:32:16.997Z,4.90
2023-05-24T07:34:43.941Z,5.03
2023-05-24T07:37:10.421Z,5.40
2023-05-24T07:39:38.348Z,5.25
2023-05-24T07:42:05.592Z,4.95
2023-05-24T07:44:32.319Z,4.03
2023-05-24T07:46:59.205Z,4.32
2023-05-24T07:49:26.196Z,4.32
2023-05-24T07:51:53.449Z,5.65
2023-05-24T07:54:20.050Z,4.60
2023-05-24T07:56:47.622Z,3.97
2023-05-24T07:59:14.073Z,3.80
2023-05-24T08:01:41.760Z,3.42
2023-05-24T08:04:10.379Z,4.53
2023-05-24T08:06:36.991Z,3.70
2023-05-24T08:09:05.144Z,3.80
2023-05-24T08:11:31.562Z,3.58
2023-05-24T08:13:58.144Z,3.50
2023-05-24T08:16:24.816Z,4.10
2023-05-24T08:18:53.368Z,3.70
2023-05-24T08:21:21.903Z,3.05
2023-05-24T08:23:48.419Z,3.90
2023-05-24T08:26:16.643Z,3.33
2023-05-24T08:28:43.074Z,3.63
2023-05-24T08:31:09.964Z,3.42
2023-05-24T08:33:38.285Z,3.60
2023-05-24T08:36:04.851Z,4.00
2023-05-24T08:38:31.268Z,3.90
2023-05-24T08:41:00.408Z,3.40
2023-05-24T08:43:29.148Z,3.33
2023-05-24T08:45:59.075Z,3.30
2023-05-24T08:48:26.946Z,3.63
2023-05-24T08:50:53.646Z,4.38
2023-05-24T08:53:22.645Z,3.60
2023-05-24T08:55:53.530Z,3.65
2023-05-24T08:58:20.717Z,3.38
2023-05-24T09:00:47.534Z,3.63
2023-05-24T09:03:14.186Z,3.20
2023-05-24T09:05:41.931Z,3.08
2023-05-24T09:08:10.433Z,3.45
2023-05-24T09:10:49.421Z,3.00
2023-05-24T09:13:23.948Z,3.63
2023-05-24T09:15:50.773Z,2.70
2023-05-24T09:18:17.318Z,2.97
2023-05-24T09:20:44.059Z,3.42
2023-05-24T09:23:12.552Z,3.30
2023-05-24T09:25:44.728Z,3.30
2023-05-24T09:28:14.679Z,3.17
2023-05-24T09:30:46.145Z,2.88
2023-05-24T09:33:13.405Z,4.03
2023-05-24T09:35:44.840Z,2.92
2023-05-24T09:38:18.795Z,4.22
2023-05-24T09:40:45.889Z,3.72
2023-05-24T09:43:12.533Z,3.35
2023-05-24T09:45:49.528Z,3.20
2023-05-24T09:48:20.146Z,2.63
2023-05-24T09:51:04.676Z,3.22
2023-05-24T09:53:33.942Z,3.03
2023-05-24T09:56:01.813Z,2.92
2023-05-24T09:58:33.980Z,2.90
2023-05-24T10:01:08.329Z,2.83
2023-05-24T10:03:36.235Z,3.03
2023-05-24T10:06:11.302Z,2.72
2023-05-24T10:08:38.134Z,3.28
2023-05-24T10:11:05.643Z,2.97
2023-05-24T10:13:35.731Z,3.55
2023-05-24T10:16:05.857Z,3.28
2023-05-24T10:18:32.779Z,2.85
2023-05-24T10:21:02.127Z,3.58
2023-05-24T10:23:31.412Z,3.28
2023-05-24T10:26:10.279Z,3.42
2023-05-24T10:28:55.830Z,3.88
2023-05-24T10:31:27.753Z,3.65
2023-05-24T10:34:06.519Z,3.30
2023-05-24T10:36:35.433Z,3.20
2023-05-24T10:39:02.181Z,3.67
2023-05-24T10:41:29.045Z,3.75
2023-05-24T10:44:09.275Z,3.53
2023-05-24T10:46:38.147Z,3.28
2023-05-24T10:49:06.913Z,3.97
2023-05-24T10:51:41.128Z,3.50
2023-05-24T10:54:16.698Z,2.93
2023-05-24T10:56:49.287Z,3.38
2023-05-24T10:59:23.106Z,3.88
2023-05-24T11:02:00.687Z,3.40
2023-05-24T11:04:31.830Z,3.58
2023-05-24T11:07:03.928Z,3.67
2023-05-24T11:09:31.811Z,3.58
2023-05-24T11:12:07.985Z,3.90
2023-05-24T11:14:39.349Z,4.18
2023-05-24T11:17:07.990Z,3.97
2023-05-24T11:19:39.037Z,4.47
2023-05-24T11:22:09.506Z,4.10
2023-05-24T11:24:36.874Z,4.35
2023-05-24T11:27:03.961Z,4.63
2023-05-24T11:29:30.597Z,3.60
2023-05-24T11:32:08.017Z,4.10
2023-05-24T11:34:35.320Z,4.40
2023-05-24T11:37:03.140Z,3.85
2023-05-24T11:39:34.845Z,3.83
2023-05-24T11:42:04.963Z,5.03
2023-05-24T11:44:32.674Z,4.10
2023-05-24T11:47:03.339Z,3.80
2023-05-24T11:49:29.845Z,4.07
2023-05-24T11:51:57.846Z,3.80
2023-05-24T11:54:25.835Z,3.85
2023-05-24T11:56:53.373Z,3.63
2023-05-24T11:59:27.405Z,3.55
2023-05-24T12:02:05.520Z,5.03
2023-05-24T12:04:33.512Z,4.65
2023-05-24T12:07:01.366Z,3.40
2023-05-24T12:09:28.526Z,5.07
2023-05-24T12:11:55.801Z,4.05
2023-05-24T12:14:30.620Z,4.75
2023-05-24T12:16:58.010Z,3.92
2023-05-24T12:19:32.994Z,3.60
2023-05-24T12:22:01.995Z,4.72
2023-05-24T12:24:31.329Z,3.78
2023-05-24T12:27:02.249Z,3.97
2023-05-24T12:29:40.502Z,3.72
2023-05-24T12:32:12.641Z,3.72
2023-05-24T12:34:44.703Z,4.40
2023-05-24T12:37:12.462Z,4.10
2023-05-24T12:39:42.195Z,3.35
2023-05-24T12:42:10.474Z,3.97
2023-05-24T12:44:38.613Z,4.47
2023-05-24T12:47:07.714Z,3.92
2023-05-24T12:49:34.581Z,3.38
2023-05-24T12:52:04.139Z,3.83
2023-05-24T12:54:31.141Z,3.40
2023-05-24T12:57:00.048Z,3.22
2023-05-24T12:59:29.062Z,4.00
2023-05-24T13:01:56.211Z,4.18
2023-05-24T13:04:26.104Z,4.15
2023-05-24T13:06:52.735Z,3.90
2023-05-24T13:09:21.817Z,3.75
2023-05-24T13:11:48.770Z,3.70
2023-05-24T13:14:17.153Z,4.22
2023-05-24T13:16:44.171Z,3.80
2023-05-24T13:19:11.703Z,3.55
2023-05-24T13:21:39.058Z,3.78
2023-05-24T13:24:06.532Z,3.50
2023-05-24T13:26:37.150Z,4.32
2023-05-24T13:31:36.296Z,3.60
2023-05-24T13:34:02.890Z,3.28
2023-05-24T13:36:29.412Z,3.95
2023-05-24T13:39:12.782Z,3.38
2023-05-24T13:41:42.402Z,2.72
2023-05-24T13:44:10.152Z,4.25
2023-05-24T13:46:37.322Z,3.13
2023-05-24T13:49:04.637Z,3.50
2023-05-24T13:51:31.302Z,3.67
2023-05-24T13:53:57.967Z,3.72
2023-05-24T13:56:24.902Z,3.10
2023-05-24T13:58:52.817Z,3.40
2023-05-24T14:01:19.468Z,3.08
2023-05-24T14:03:46.218Z,3.70
2023-05-24T14:06:12.900Z,3.28
2023-05-24T14:08:39.860Z,3.65
2023-05-24T14:11:06.516Z,3.22
2023-05-24T14:14:32.928Z,3.50
2023-05-24T14:16:20.195Z,4.30
2023-05-24T14:18:48.940Z,3.25
2023-05-24T14:21:15.647Z,4.00
2023-05-24T14:23:42.678Z,3.75
2023-05-24T14:26:09.320Z,4.05
2023-05-24T14:28:35.741Z,4.10
2023-05-24T14:31:02.474Z,4.38
2023-05-24T14:33:29.314Z,3.70
2023-05-24T14:35:55.777Z,4.13
2023-05-24T14:38:23.872Z,3.72
2023-05-24T14:40:51.544Z,3.60
2023-05-24T14:43:18.126Z,4.00
2023-05-24T14:45:44.974Z,3.92
2023-05-24T14:48:12.540Z,3.90
2023-05-24T14:50:40.637Z,7.20
2023-05-24T14:53:12.154Z,3.67
2023-05-24T14:55:41.285Z,3.30
2023-05-24T14:58:12.436Z,3.60
2023-05-24T15:00:40.320Z,3.58
2023-05-24T15:03:08.411Z,4.03
2023-05-24T15:05:36.671Z,3.83
2023-05-24T15:08:05.368Z,3.60
2023-05-24T15:10:31.923Z,4.25
2023-05-24T15:12:58.370Z,3.85
2023-05-24T15:15:25.482Z,3.92
2023-05-24T15:17:52.280Z,3.50
2023-05-24T15:20:19.740Z,3.90
2023-05-24T15:22:46.553Z,3.85
2023-05-24T15:25:13.109Z,3.83
2023-05-24T15:27:39.560Z,3.83
2023-05-24T15:30:07.647Z,4.75
2023-05-24T15:32:34.299Z,4.55
2023-05-24T15:35:01.165Z,4.13
2023-05-24T15:37:27.824Z,4.20
2023-05-24T15:39:54.494Z,3.85
2023-05-24T15:42:22.074Z,3.70
2023-05-24T15:44:48.537Z,4.13
2023-05-24T15:47:15.037Z,3.40
2023-05-24T15:49:41.983Z,3.17
2023-05-24T15:52:08.725Z,3.58
2023-05-24T15:54:35.549Z,3.33
2023-05-24T15:57:02.577Z,3.75
2023-05-24T15:59:29.432Z,3.70
2023-05-24T16:01:56.494Z,3.63
2023-05-24T16:04:23.402Z,3.63
2023-05-24T16:06:49.923Z,3.30
2023-05-24T16:09:16.457Z,3.75
2023-05-24T16:11:43.285Z,4.20
2023-05-24T16:14:10.313Z,3.85
2023-05-24T16:16:37.905Z,4.22
2023-05-24T16:19:04.524Z,4.03
2023-05-24T16:21:33.114Z,4.70
2023-05-24T16:24:01.903Z,3.63
2023-05-24T16:26:30.897Z,4.18
2023-05-24T16:28:57.825Z,4.03
2023-05-24T16:31:24.703Z,4.43
2023-05-24T16:33:51.252Z,4.57
2023-05-24T16:36:17.703Z,5.30
2023-05-24T16:38:45.388Z,5.10
2023-05-24T16:41:12.070Z,5.07
2023-05-24T16:43:38.506Z,5.32
2023-05-24T16:46:05.778Z,4.70
2023-05-24T16:48:32.651Z,4.90
2023-05-24T16:51:00.164Z,4.38
2023-05-24T16:53:27.624Z,5.53
2023-05-24T16:55:56.104Z,5.22
2023-05-24T16:58:30.028Z,5.07
2023-05-24T17:00:56.758Z,4.85
2023-05-24T17:03:28.617Z,4.43
2023-05-24T17:05:58.049Z,4.43
2023-05-24T17:08:27.479Z,4.32
2023-05-24T17:10:58.596Z,4.43
2023-05-24T17:13:27.845Z,4.82
2023-05-24T17:15:55.285Z,4.40
2023-05-24T17:18:29.637Z,4.45
2023-05-24T17:21:05.763Z,4.03
2023-05-24T17:23:34.164Z,4.13
2023-05-24T17:26:02.490Z,4.30
2023-05-24T17:28:30.002Z,4.82
2023-05-24T17:30:57.974Z,3.65
2023-05-24T17:33:27.074Z,4.15
2023-05-24T17:35:57.179Z,4.60
2023-05-24T17:38:24.892Z,4.53
2023-05-24T17:40:57.237Z,3.92
2023-05-24T17:43:34.672Z,3.88
2023-05-24T17:46:04.125Z,3.75
2023-05-24T17:48:31.868Z,4.85
2023-05-24T17:51:02.092Z,4.03
2023-05-24T17:53:31.796Z,3.97
2023-05-24T17:55:59.446Z,4.60
2023-05-24T17:58:26.056Z,4.40
2023-05-24T18:00:52.740Z,4.95
2023-05-24T18:03:19.734Z,4.78
2023-05-24T18:05:46.296Z,3.85
2023-05-24T18:08:12.867Z,4.22
2023-05-24T18:10:39.296Z,3.97
2023-05-24T18:13:07.682Z,4.20
2023-05-24T18:15:34.568Z,3.70
2023-05-24T18:18:01.197Z,3.83
2023-05-24T18:20:28.221Z,3.85
2023-05-24T18:22:54.707Z,4.25
2023-05-24T18:25:21.458Z,4.07
2023-05-24T18:27:47.888Z,4.00
2023-05-24T18:30:14.841Z,3.40
2023-05-24T18:32:49.006Z,4.18
2023-05-24T18:35:28.105Z,3.80
2023-05-24T18:37:55.046Z,3.25
2023-05-24T18:40:23.333Z,4.32
2023-05-24T18:42:53.134Z,4.03
2023-05-24T18:45:19.587Z,4.38
2023-05-24T18:47:46.258Z,3.70
2023-05-24T18:50:12.951Z,3.72
2023-05-24T18:52:39.362Z,4.20
2023-05-24T18:55:10.482Z,3.50
2023-05-24T18:57:37.647Z,3.47
2023-05-24T19:00:06.320Z,3.40
2023-05-24T19:02:38.638Z,4.03
2023-05-24T19:05:06.722Z,3.50
2023-05-24T19:07:34.815Z,3.78
2023-05-24T19:10:01.613Z,3.63
2023-05-24T19:12:28.756Z,3.65
2023-05-24T19:14:55.361Z,3.90
2023-05-24T19:17:22.339Z,3.83
2023-05-24T19:19:49.088Z,3.97
2023-05-24T19:22:16.452Z,3.65
2023-05-24T19:24:43.370Z,3.72
2023-05-24T19:27:09.973Z,3.95
2023-05-24T19:29:37.766Z,3.50
2023-05-24T19:32:05.019Z,3.20
2023-05-24T19:34:33.292Z,3.95
2023-05-24T19:36:59.879Z,3.83
2023-05-24T19:39:26.651Z,3.00
2023-05-24T19:41:53.128Z,3.53
2023-05-24T19:44:19.586Z,3.15
2023-05-24T19:46:46.176Z,3.42
2023-05-24T19:49:12.679Z,3.35
2023-05-24T19:51:39.314Z,3.97
2023-05-24T19:54:09.098Z,3.33
2023-05-24T19:56:36.145Z,3.35
2023-05-24T19:59:02.655Z,3.45
2023-05-24T20:01:29.855Z,2.95
2023-05-24T20:03:56.435Z,3.78
2023-05-24T20:06:22.933Z,3.70
2023-05-24T20:08:49.883Z,3.45
2023-05-24T20:11:16.305Z,3.00
2023-05-24T20:13:43.160Z,3.63
2023-05-24T20:16:09.864Z,3.75
2023-05-24T20:18:36.872Z,3.83
2023-05-24T20:21:03.883Z,3.28
2023-05-24T20:23:30.846Z,4.30
2023-05-24T20:25:57.810Z,3.65
2023-05-24T20:28:30.619Z,3.97
2023-05-24T20:30:58.611Z,3.40
2023-05-24T20:33:25.319Z,3.58
2023-05-24T20:35:53.855Z,3.85
2023-05-24T20:38:20.724Z,3.88
2023-05-24T20:40:47.687Z,3.25
2023-05-24T20:43:14.145Z,3.65
2023-05-24T20:45:40.726Z,3.53
2023-05-24T20:48:07.522Z,3.72
2023-05-24T20:50:33.979Z,3.58
2023-05-24T20:53:00.456Z,3.75
2023-05-24T20:55:27.203Z,3.42
2023-05-24T20:57:53.852Z,3.20
2023-05-24T21:00:20.376Z,3.28
2023-05-24T21:02:47.009Z,3.70
2023-05-24T21:05:13.652Z,3.85
2023-05-24T21:07:40.315Z,3.90
2023-05-24T21:10:07.757Z,4.00
2023-05-24T21:12:34.261Z,3.10
2023-05-24T21:15:00.748Z,3.67
2023-05-24T21:17:27.785Z,3.65
2023-05-24T21:19:54.315Z,3.47
2023-05-24T21:22:21.241Z,3.80
2023-05-24T21:24:47.786Z,3.55
2023-05-24T21:27:14.561Z,3.75
2023-05-24T21:29:42.067Z,4.03
2023-05-24T21:32:09.036Z,3.85
2023-05-24T21:34:38.675Z,4.15
2023-05-24T21:37:05.352Z,3.88
2023-05-24T21:39:32.897Z,3.58
2023-05-24T21:41:59.413Z,3.95
2023-05-24T21:44:25.982Z,3.53
2023-05-24T21:46:52.917Z,3.05
2023-05-24T21:49:20.068Z,3.97
2023-05-24T21:51:46.915Z,4.07
2023-05-24T21:54:13.808Z,3.50
2023-05-24T21:56:40.316Z,3.42
2023-05-24T21:59:07.155Z,3.75
2023-05-24T22:01:33.638Z,3.42
2023-05-24T22:04:00.481Z,4.05
2023-05-24T22:06:27.204Z,3.65
2023-05-24T22:08:53.804Z,4.15
2023-05-24T22:11:20.659Z,3.90
2023-05-24T22:13:47.109Z,4.20
2023-05-24T22:16:13.648Z,4.15
2023-05-24T22:18:40.294Z,4.18
2023-05-24T22:21:06.786Z,4.53
2023-05-24T22:23:33.859Z,3.90
2023-05-24T22:26:00.307Z,3.80
2023-05-24T22:28:26.748Z,3.95
2023-05-24T22:30:53.716Z,4.10
2023-05-24T22:33:20.187Z,3.70
2023-05-24T22:35:46.777Z,4.50
2023-05-24T22:38:13.441Z,4.63
2023-05-24T22:40:42.064Z,4.28
2023-05-24T22:43:08.669Z,4.50
2023-05-24T22:45:35.350Z,4.07
2023-05-24T22:48:03.460Z,4.68
2023-05-24T22:50:30.518Z,3.80
2023-05-24T22:52:58.878Z,4.22
2023-05-24T22:55:25.425Z,4.60
2023-05-24T22:57:52.354Z,4.45
2023-05-24T23:00:18.986Z,4.70
2023-05-24T23:02:46.794Z,4.93
2023-05-24T23:05:14.252Z,4.22
2023-05-24T23:07:40.778Z,4.13
2023-05-24T23:10:09.540Z,4.45
2023-05-24T23:12:36.324Z,4.30
2023-05-24T23:15:03.400Z,4.25
2023-05-24T23:17:30.001Z,4.38
2023-05-24T23:19:56.590Z,3.45
2023-05-24T23:22:24.044Z,4.55
2023-05-24T23:24:51.089Z,3.90
2023-05-24T23:27:18.200Z,4.93
2023-05-24T23:29:44.682Z,4.43
2023-05-24T23:32:11.692Z,5.05
2023-05-24T23:34:38.189Z,5.03
2023-05-24T23:37:05.590Z,5.20
2023-05-24T23:39:32.157Z,5.15
2023-05-24T23:41:58.679Z,4.57
2023-05-24T23:44:26.038Z,5.25
2023-05-24T23:46:53.209Z,4.50
2023-05-24T23:49:20.455Z,4.63
2023-05-24T23:51:47.297Z,5.15
2023-05-24T23:54:18.955Z,4.55
2023-05-24T23:56:45.798Z,4.72
2023-05-24T23:59:12.784Z,4.72
